createdAt,value
2022-08-07T00:00:28.121Z,102660.88
2022-08-07T00:02:57.040Z,102665.22
2022-08-07T00:05:25.550Z,102660.78
2022-08-07T00:07:59.976Z,102667.13
2022-08-07T00:10:30.545Z,102660.78
2022-08-07T00:13:03.337Z,102660.78
2022-08-07T00:15:50.933Z,102657.22
2022-08-07T00:18:24.377Z,102656.28
2022-08-07T00:20:53.839Z,102667.03
2022-08-07T00:23:22.206Z,102656.28
2022-08-07T00:25:52.065Z,102651.75
2022-08-07T00:28:33.746Z,102651.75
2022-08-07T00:31:06.136Z,102652.63
2022-08-07T00:33:35.653Z,102646.38
2022-08-07T00:36:05.161Z,102642.81
2022-08-07T00:38:34.159Z,102640.13
2022-08-07T00:41:02.289Z,102643.69
2022-08-07T00:43:59.176Z,102644.56
2022-08-07T00:46:20.395Z,102642.78
2022-08-07T00:48:51.777Z,102638.25
2022-08-07T00:51:20.561Z,102633.81
2022-08-07T00:53:50.128Z,102637.41
2022-08-07T00:56:19.494Z,102632.00
2022-08-07T00:58:49.665Z,102627.56
2022-08-07T01:01:21.377Z,102634.72
2022-08-07T01:03:56.055Z,102623.94
2022-08-07T01:06:29.231Z,102620.34
2022-08-07T01:09:00.568Z,102614.97
2022-08-07T01:12:09.490Z,102618.56
2022-08-07T01:14:17.361Z,102614.97
2022-08-07T01:16:51.521Z,102614.09
2022-08-07T01:19:20.694Z,102610.50
2022-08-07T01:21:55.181Z,102619.50
2022-08-07T01:24:24.514Z,102614.09
2022-08-07T01:26:53.828Z,102614.09
2022-08-07T01:29:27.831Z,102611.41
2022-08-07T01:31:59.858Z,102614.97
2022-08-07T01:34:31.409Z,102613.19
2022-08-07T01:37:02.138Z,102609.59
2022-08-07T01:39:41.168Z,102606.03
2022-08-07T01:42:37.646Z,102604.22
2022-08-07T01:45:05.227Z,102603.34
2022-08-07T01:48:18.426Z,102603.34
2022-08-07T01:50:29.108Z,102604.22
2022-08-07T01:53:01.436Z,102600.66
2022-08-07T01:55:43.792Z,102610.50
2022-08-07T01:58:28.856Z,102597.97
2022-08-07T02:01:25.046Z,102597.97
2022-08-07T02:04:00.671Z,102597.97
2022-08-07T02:06:32.633Z,102594.50
2022-08-07T02:09:06.257Z,102600.66
2022-08-07T02:12:03.887Z,102600.75
2022-08-07T02:14:35.626Z,102599.88
2022-08-07T02:17:09.458Z,102595.38
2022-08-07T02:20:04.213Z,102588.25
2022-08-07T02:22:32.039Z,102591.81
2022-08-07T02:25:07.131Z,102590.84
2022-08-07T02:27:51.927Z,102592.53
2022-08-07T02:30:21.411Z,102583.59
2022-08-07T02:33:00.137Z,102585.41
2022-08-07T02:36:29.540Z,102587.31
2022-08-07T02:38:31.947Z,102583.75
2022-08-07T02:41:03.941Z,102586.44
2022-08-07T02:43:32.291Z,102582.94
2022-08-07T02:46:02.663Z,102579.38
2022-08-07T02:48:32.130Z,102583.88
2022-08-07T02:51:06.808Z,102589.34
2022-08-07T02:53:39.095Z,102589.34
2022-08-07T02:56:17.538Z,102583.06
2022-08-07T02:58:51.280Z,102575.94
2022-08-07T03:01:35.714Z,102583.16
2022-08-07T03:04:07.739Z,102576.03
2022-08-07T03:06:44.730Z,102580.53
2022-08-07T03:11:52.351Z,102579.66
2022-08-07T03:14:27.774Z,102577.03
2022-08-07T03:16:56.845Z,102580.66
2022-08-07T03:19:29.117Z,102580.66
2022-08-07T03:22:07.162Z,102580.66
2022-08-07T03:24:36.691Z,102577.16
2022-08-07T03:27:09.234Z,102580.72
2022-08-07T03:29:44.575Z,102582.53
2022-08-07T03:32:20.050Z,102580.81
2022-08-07T03:35:00.971Z,102575.44
2022-08-07T03:37:46.276Z,102575.44
2022-08-07T03:40:22.226Z,102578.13
2022-08-07T03:42:52.294Z,102571.00
2022-08-07T03:45:30.762Z,102577.34
2022-08-07T03:47:59.763Z,102571.94
2022-08-07T03:50:29.306Z,102578.19
2022-08-07T03:52:59.620Z,102572.88
2022-08-07T03:55:57.312Z,102578.25
2022-08-07T03:59:05.301Z,102580.06
2022-08-07T04:01:11.926Z,102576.50
2022-08-07T04:03:53.407Z,102574.69
2022-08-07T04:06:37.760Z,102576.50
2022-08-07T04:09:15.498Z,102589.09
2022-08-07T04:12:24.112Z,102574.78
2022-08-07T04:14:37.676Z,102588.22
2022-08-07T04:17:21.235Z,102572.13
2022-08-07T04:20:00.299Z,102579.34
2022-08-07T04:22:30.162Z,102585.59
2022-08-07T04:25:00.889Z,102586.47
2022-08-07T04:27:36.202Z,102587.47
2022-08-07T04:30:35.966Z,102594.59
2022-08-07T04:33:02.576Z,102601.78
2022-08-07T04:35:35.853Z,102604.47
2022-08-07T04:38:07.992Z,102599.09
2022-08-07T04:40:36.046Z,102605.34
2022-08-07T04:43:22.122Z,102604.47
2022-08-07T04:46:20.109Z,102604.47
2022-08-07T04:49:17.859Z,102605.44
2022-08-07T04:51:55.516Z,102609.00
2022-08-07T04:54:32.672Z,102603.63
2022-08-07T04:58:23.951Z,102602.75
2022-08-07T05:00:13.179Z,102609.94
2022-08-07T05:02:57.038Z,102605.44
2022-08-07T05:05:54.020Z,102614.41
2022-08-07T05:08:59.960Z,102609.00
2022-08-07T05:11:19.445Z,102603.63
2022-08-07T05:14:53.900Z,102611.72
2022-08-07T05:16:47.595Z,102613.50
2022-08-07T05:19:43.997Z,102615.31
2022-08-07T05:22:13.433Z,102625.16
2022-08-07T05:24:59.598Z,102618.06
2022-08-07T05:28:02.872Z,102612.69
2022-08-07T05:30:29.983Z,102619.78
2022-08-07T05:33:03.416Z,102620.69
2022-08-07T05:35:41.877Z,102619.78
2022-08-07T05:38:11.760Z,102618.91
2022-08-07T05:40:50.313Z,102615.38
2022-08-07T05:43:49.883Z,102620.75
2022-08-07T05:46:08.319Z,102617.09
2022-08-07T05:48:37.721Z,102626.94
2022-08-07T05:51:28.114Z,102619.66
2022-08-07T05:54:12.531Z,102622.34
2022-08-07T05:56:51.479Z,102625.84
2022-08-07T05:59:22.194Z,102617.78
2022-08-07T06:01:51.986Z,102623.09
2022-08-07T06:04:22.464Z,102626.66
2022-08-07T06:07:04.440Z,102631.09
2022-08-07T06:10:04.507Z,102631.97
2022-08-07T06:12:31.634Z,102632.84
2022-08-07T06:15:05.854Z,102625.72
2022-08-07T06:17:37.980Z,102626.50
2022-08-07T06:20:12.712Z,102627.38
2022-08-07T06:23:02.105Z,102630.94
2022-08-07T06:25:54.057Z,102636.28
2022-08-07T06:28:28.099Z,102633.63
2022-08-07T06:30:58.266Z,102641.56
2022-08-07T06:33:27.232Z,102640.69
2022-08-07T06:36:12.273Z,102636.19
2022-08-07T06:38:58.439Z,102630.81
2022-08-07T06:42:00.536Z,102633.50
2022-08-07T06:44:26.371Z,102629.84
2022-08-07T06:47:10.380Z,102632.50
2022-08-07T06:49:51.599Z,102626.25
2022-08-07T06:52:31.673Z,102631.63
2022-08-07T06:57:59.464Z,102622.59
2022-08-07T07:00:30.458Z,102617.22
2022-08-07T07:03:01.306Z,102611.78
2022-08-07T07:06:04.435Z,102607.25
2022-08-07T07:08:29.790Z,102612.19
2022-08-07T07:11:01.226Z,102612.53
2022-08-07T07:13:57.477Z,102605.47
2022-08-07T07:16:33.966Z,102602.06
2022-08-07T07:19:41.028Z,102607.59
2022-08-07T07:22:11.622Z,102609.53
2022-08-07T07:24:48.435Z,102618.69
2022-08-07T07:27:35.658Z,102614.31
2022-08-07T07:30:32.466Z,102608.13
2022-08-07T07:33:03.568Z,102610.97
2022-08-07T07:35:54.080Z,102612.69
2022-08-07T07:38:25.442Z,102610.97
2022-08-07T07:41:01.729Z,102616.25
2022-08-07T07:44:14.434Z,102613.66
2022-08-07T07:46:39.741Z,102615.38
2022-08-07T07:50:35.100Z,102615.31
2022-08-07T07:52:07.902Z,102618.81
2022-08-07T07:54:38.621Z,102619.56
2022-08-07T07:57:14.578Z,102617.81
2022-08-07T07:59:52.210Z,102610.63
2022-08-07T08:02:33.919Z,102608.72
2022-08-07T08:05:11.362Z,102608.69
2022-08-07T08:07:59.790Z,102610.41
2022-08-07T08:10:38.227Z,102610.28
2022-08-07T08:13:10.291Z,102611.16
2022-08-07T08:15:59.043Z,102599.53
2022-08-07T08:18:30.029Z,102606.66
2022-08-07T08:21:01.545Z,102605.78
2022-08-07T08:23:49.533Z,102605.69
2022-08-07T08:26:36.990Z,102605.66
2022-08-07T08:29:06.163Z,102599.38
2022-08-07T08:31:59.206Z,102595.69
2022-08-07T08:34:29.302Z,102590.31
2022-08-07T08:36:58.726Z,102583.09
2022-08-07T08:39:39.359Z,102585.78
2022-08-07T08:42:25.659Z,102577.81
2022-08-07T08:45:06.518Z,102584.06
2022-08-07T08:47:52.601Z,102587.53
2022-08-07T08:50:39.803Z,102586.63
2022-08-07T08:53:16.545Z,102584.94
2022-08-07T08:55:54.609Z,102582.25
2022-08-07T08:58:35.240Z,102582.25
2022-08-07T09:01:18.549Z,102579.47
2022-08-07T09:03:59.767Z,102570.53
2022-08-07T09:06:47.557Z,102572.22
2022-08-07T09:09:36.570Z,102572.13
2022-08-07T09:12:20.289Z,102570.34
2022-08-07T09:16:23.533Z,102570.28
2022-08-07T09:18:22.623Z,102577.47
2022-08-07T09:21:06.894Z,102572.09
2022-08-07T09:24:31.268Z,102572.00
2022-08-07T09:26:47.795Z,102570.06
2022-08-07T09:30:04.096Z,102578.13
2022-08-07T09:32:56.512Z,102570.91
2022-08-07T09:36:03.025Z,102567.38
2022-08-07T09:38:42.322Z,102564.69
2022-08-07T09:41:36.302Z,102563.81
2022-08-07T09:44:32.833Z,102563.94
2022-08-07T09:47:51.123Z,102556.81
2022-08-07T09:50:19.955Z,102555.97
2022-08-07T09:52:58.236Z,102555.00
2022-08-07T09:56:04.133Z,102553.19
2022-08-07T09:58:58.296Z,102543.31
2022-08-07T10:01:51.717Z,102541.28
2022-08-07T10:04:57.105Z,102532.28
2022-08-07T10:07:52.633Z,102528.63
2022-08-07T10:11:07.815Z,102525.94
2022-08-07T10:16:39.406Z,102530.22
2022-08-07T10:19:23.362Z,102521.22
2022-08-07T10:22:15.752Z,102520.34
2022-08-07T10:24:54.915Z,102521.16
2022-08-07T10:27:56.935Z,102517.53
2022-08-07T10:30:32.193Z,102520.13
2022-08-07T10:33:23.585Z,102516.44
2022-08-07T10:36:29.636Z,102510.09
2022-08-07T10:39:05.613Z,102504.66
2022-08-07T10:41:46.444Z,102515.41
2022-08-07T10:44:38.433Z,102509.22
2022-08-07T10:47:27.150Z,102500.38
2022-08-07T10:50:15.891Z,102503.94
2022-08-07T10:52:59.878Z,102502.09
2022-08-07T10:55:43.520Z,102504.78
2022-08-07T10:58:31.938Z,102496.72
2022-08-07T11:01:23.797Z,102492.16
2022-08-07T11:04:23.037Z,102491.25
2022-08-07T11:06:59.537Z,102488.38
2022-08-07T11:10:09.374Z,102483.88
2022-08-07T11:12:31.686Z,102478.19
2022-08-07T11:15:09.594Z,102481.63
2022-08-07T11:17:49.818Z,102468.13
2022-08-07T11:20:25.477Z,102472.59
2022-08-07T11:23:03.693Z,102460.09
2022-08-07T11:25:47.903Z,102464.53
2022-08-07T11:28:24.736Z,102459.09
2022-08-07T11:30:59.357Z,102457.28
2022-08-07T11:33:59.242Z,102453.56
2022-08-07T11:36:54.073Z,102451.59
2022-08-07T11:39:59.993Z,102445.25
2022-08-07T11:42:40.493Z,102449.69
2022-08-07T11:45:20.511Z,102446.03
2022-08-07T11:48:18.273Z,102425.31
2022-08-07T11:51:10.893Z,102433.06
2022-08-07T11:54:11.823Z,102426.03
2022-08-07T11:56:56.267Z,102424.22
2022-08-07T12:00:11.220Z,102429.50
2022-08-07T12:03:45.406Z,102429.38
2022-08-07T12:06:39.639Z,102423.91
2022-08-07T12:09:16.062Z,102423.91
2022-08-07T12:12:10.395Z,102422.00
2022-08-07T12:14:56.134Z,102426.44
2022-08-07T12:17:34.294Z,102419.16
2022-08-07T12:20:12.912Z,102423.59
2022-08-07T12:24:07.006Z,102421.00
2022-08-07T12:26:33.618Z,102419.94
2022-08-07T12:29:12.852Z,102415.38
2022-08-07T12:31:53.304Z,102411.72
2022-08-07T12:34:37.890Z,102415.13
2022-08-07T12:37:08.635Z,102402.63
2022-08-07T12:39:50.804Z,102415.03
2022-08-07T12:42:27.504Z,102406.09
2022-08-07T12:44:59.397Z,102404.13
2022-08-07T12:47:37.764Z,102400.56
2022-08-07T12:50:33.786Z,102394.31
2022-08-07T12:53:18.646Z,102406.66
2022-08-07T12:56:03.623Z,102397.78
2022-08-07T12:58:39.333Z,102389.78
2022-08-07T13:01:18.375Z,102389.69
2022-08-07T13:04:13.650Z,102385.13
2022-08-07T13:07:21.303Z,102386.94
2022-08-07T13:10:39.587Z,102383.41
2022-08-07T13:13:48.212Z,102372.63
2022-08-07T13:16:17.641Z,102376.97
2022-08-07T13:18:58.637Z,102378.63
2022-08-07T13:21:50.463Z,102370.56
2022-08-07T13:24:25.871Z,102368.72
2022-08-07T13:27:05.642Z,102368.81
2022-08-07T13:29:47.741Z,102369.59
2022-08-07T13:32:32.444Z,102369.59
2022-08-07T13:35:10.451Z,102367.00
2022-08-07T13:37:55.493Z,102353.59
2022-08-07T13:40:36.154Z,102359.88
2022-08-07T13:43:16.866Z,102354.31
2022-08-07T13:46:11.958Z,102349.72
2022-08-07T13:48:58.698Z,102349.56
2022-08-07T13:52:25.920Z,102354.00
2022-08-07T13:54:23.728Z,102350.44
2022-08-07T13:56:59.749Z,102354.97
2022-08-07T13:59:32.342Z,102352.16
2022-08-07T14:02:08.555Z,102348.69
2022-08-07T14:04:50.073Z,102347.13
2022-08-07T14:07:22.818Z,102345.53
2022-08-07T14:10:17.658Z,102343.94
2022-08-07T14:12:54.127Z,102345.00
2022-08-07T14:15:31.610Z,102338.03
2022-08-07T14:18:27.061Z,102336.28
2022-08-07T14:21:00.375Z,102340.78
2022-08-07T14:24:00.282Z,102333.69
2022-08-07T14:26:33.511Z,102332.81
2022-08-07T14:30:02.932Z,102335.50
2022-08-07T14:31:57.892Z,102323.94
2022-08-07T14:34:30.630Z,102328.44
2022-08-07T14:37:03.034Z,102331.13
2022-08-07T14:40:18.192Z,102326.72
2022-08-07T14:43:55.791Z,102329.41
2022-08-07T14:45:46.703Z,102326.72
2022-08-07T14:48:21.149Z,102326.72
2022-08-07T14:50:53.202Z,102323.06
2022-08-07T14:54:05.555Z,102321.34
2022-08-07T14:56:29.986Z,102318.72
2022-08-07T14:59:02.984Z,102319.59
2022-08-07T15:01:42.388Z,102321.44
2022-08-07T15:04:13.361Z,102319.59
2022-08-07T15:06:47.742Z,102319.59
2022-08-07T15:09:58.797Z,102320.47
2022-08-07T15:15:07.771Z,102318.72
2022-08-07T15:17:54.867Z,102316.91
2022-08-07T15:23:20.949Z,102324.03
2022-08-07T15:25:56.889Z,102322.19
2022-08-07T15:32:01.779Z,102321.34
2022-08-07T15:34:15.064Z,102314.13
2022-08-07T15:37:04.247Z,102320.38
2022-08-07T15:39:56.948Z,102317.63
2022-08-07T15:42:54.411Z,102313.97
2022-08-07T15:45:56.503Z,102304.06
2022-08-07T15:51:18.021Z,102305.75
2022-08-07T15:53:52.831Z,102296.72
2022-08-07T15:56:25.878Z,102301.06
2022-08-07T15:58:59.269Z,102300.09
2022-08-07T16:01:38.494Z,102307.22
2022-08-07T16:04:14.856Z,102307.22
2022-08-07T16:06:49.325Z,102299.16
2022-08-07T16:09:23.165Z,102303.66
2022-08-07T16:12:04.569Z,102301.94
2022-08-07T16:14:59.128Z,102308.28
2022-08-07T16:18:02.951Z,102300.09
2022-08-07T16:20:55.302Z,102304.63
2022-08-07T16:23:58.352Z,102302.78
2022-08-07T16:26:58.938Z,102300.09
2022-08-07T16:30:11.619Z,102300.88
2022-08-07T16:32:53.923Z,102305.41
2022-08-07T16:35:51.989Z,102295.59
2022-08-07T16:39:00.687Z,102306.25
2022-08-07T16:41:48.722Z,102309.91
2022-08-07T16:45:07.278Z,102301.84
2022-08-07T16:48:00.439Z,102300.97
2022-08-07T16:51:13.500Z,102296.44
2022-08-07T16:54:01.894Z,102303.56
2022-08-07T16:56:37.293Z,102300.00
2022-08-07T16:59:11.010Z,102305.50
2022-08-07T17:01:57.387Z,102304.53
2022-08-07T17:04:50.898Z,102310.78
2022-08-07T17:07:55.346Z,102300.97
2022-08-07T17:10:35.099Z,102297.41
2022-08-07T17:13:41.312Z,102305.50
2022-08-07T17:16:18.650Z,102305.59
2022-08-07T17:19:00.608Z,102307.38
2022-08-07T17:21:51.844Z,102302.94
2022-08-07T17:24:43.041Z,102303.81
2022-08-07T17:27:19.974Z,102302.00
2022-08-07T17:30:14.047Z,102306.59
2022-08-07T17:32:59.631Z,102303.09
2022-08-07T17:35:55.164Z,102310.31
2022-08-07T17:38:35.128Z,102311.28
2022-08-07T17:42:00.954Z,102307.97
2022-08-07T17:44:08.242Z,102307.16
2022-08-07T17:46:52.631Z,102313.56
2022-08-07T17:49:24.869Z,102308.28
2022-08-07T17:52:01.330Z,102314.53
2022-08-07T17:54:40.084Z,102314.69
2022-08-07T17:57:25.384Z,102312.09
2022-08-07T18:00:27.555Z,102315.00
2022-08-07T18:03:09.563Z,102308.06
2022-08-07T18:06:02.293Z,102325.31
2022-08-07T18:08:34.997Z,102330.84
2022-08-07T18:12:07.518Z,102333.63
2022-08-07T18:14:05.849Z,102334.63
2022-08-07T18:16:57.541Z,102341.00
2022-08-07T18:21:08.595Z,102334.91
2022-08-07T18:22:31.868Z,102334.84
2022-08-07T18:25:19.290Z,102337.69
2022-08-07T18:28:34.507Z,102340.53
2022-08-07T18:31:05.497Z,102348.59
2022-08-07T18:34:37.192Z,102338.88
2022-08-07T18:37:15.075Z,102345.31
2022-08-07T18:40:42.874Z,102345.50
2022-08-07T18:43:15.208Z,102336.72
2022-08-07T18:46:21.884Z,102345.06
2022-08-07T18:50:35.024Z,102347.72
2022-08-07T18:52:33.559Z,102353.28
2022-08-07T18:54:37.049Z,102356.94
2022-08-07T18:57:30.253Z,102355.28
2022-08-07T19:00:34.389Z,102359.84
2022-08-07T19:03:11.678Z,102364.50
2022-08-07T19:06:01.950Z,102361.09
2022-08-07T19:08:46.598Z,102366.59
2022-08-07T19:11:36.664Z,102358.72
2022-08-07T19:14:16.936Z,102365.09
2022-08-07T19:17:08.264Z,102367.78
2022-08-07T19:19:53.257Z,102371.44
2022-08-07T19:22:30.719Z,102378.75
2022-08-07T19:25:05.671Z,102385.06
2022-08-07T19:28:56.496Z,102383.47
2022-08-07T19:31:04.297Z,102381.13
2022-08-07T19:33:33.555Z,102391.09
2022-08-07T19:36:03.722Z,102387.47
2022-08-07T19:38:52.577Z,102393.56
2022-08-07T19:41:44.305Z,102396.13
2022-08-07T19:44:21.770Z,102392.34
2022-08-07T19:46:58.001Z,102400.25
2022-08-07T19:49:58.076Z,102401.00
2022-08-07T19:52:28.644Z,102400.91
2022-08-07T19:54:58.304Z,102403.44
2022-08-07T19:58:03.351Z,102408.69
2022-08-07T20:00:28.927Z,102413.91
2022-08-07T20:03:02.338Z,102414.72
2022-08-07T20:05:59.866Z,102407.41
2022-08-07T20:08:28.353Z,102410.94
2022-08-07T20:11:04.019Z,102412.66
2022-08-07T20:13:46.622Z,102415.22
2022-08-07T20:16:35.611Z,102417.75
2022-08-07T20:19:09.940Z,102413.16
2022-08-07T20:21:47.506Z,102412.22
2022-08-07T20:24:20.418Z,102415.78
2022-08-07T20:26:52.279Z,102415.69
2022-08-07T20:29:49.157Z,102422.81
2022-08-07T20:32:22.972Z,102417.38
2022-08-07T20:34:57.266Z,102418.25
2022-08-07T20:37:29.431Z,102423.53
2022-08-07T20:40:02.394Z,102418.16
2022-08-07T20:42:34.544Z,102424.41
2022-08-07T20:45:33.770Z,102417.16
2022-08-07T20:47:58.619Z,102425.22
2022-08-07T20:50:30.616Z,102422.53
2022-08-07T20:53:00.413Z,102420.72
2022-08-07T20:55:32.020Z,102425.13
2022-08-07T20:58:03.964Z,102425.06
2022-08-07T21:00:48.186Z,102421.44
2022-08-07T21:03:25.795Z,102428.63
2022-08-07T21:05:57.922Z,102432.19
2022-08-07T21:08:37.756Z,102435.75
2022-08-07T21:11:14.501Z,102443.75
2022-08-07T21:14:16.779Z,102433.94
2022-08-07T21:16:56.321Z,102431.19
2022-08-07T21:19:51.509Z,102432.03
2022-08-07T21:22:28.337Z,102437.34
2022-08-07T21:25:04.676Z,102427.44
2022-08-07T21:28:01.719Z,102431.91
2022-08-07T21:30:41.835Z,102430.94
2022-08-07T21:33:17.684Z,102439.97
2022-08-07T21:36:04.109Z,102438.16
2022-08-07T21:38:50.016Z,102430.94
2022-08-07T21:41:38.263Z,102437.19
2022-08-07T21:44:28.320Z,102433.63
2022-08-07T21:47:02.430Z,102444.31
2022-08-07T21:50:02.588Z,102438.06
2022-08-07T21:52:37.378Z,102439.78
2022-08-07T21:55:16.113Z,102437.09
2022-08-07T21:58:12.086Z,102440.75
2022-08-07T22:00:43.785Z,102444.31
2022-08-07T22:03:18.885Z,102438.94
2022-08-07T22:06:02.865Z,102442.47
2022-08-07T22:08:38.732Z,102445.16
2022-08-07T22:11:08.677Z,102449.63
2022-08-07T22:13:51.363Z,102449.63
2022-08-07T22:16:44.688Z,102443.44
2022-08-07T22:19:20.093Z,102441.56
2022-08-07T22:22:17.796Z,102439.78
2022-08-07T22:25:03.232Z,102450.50
2022-08-07T22:28:20.128Z,102452.38
2022-08-07T22:30:36.990Z,102453.25
2022-08-07T22:33:09.159Z,102455.94
2022-08-07T22:35:42.028Z,102452.38
2022-08-07T22:38:20.544Z,102458.63
2022-08-07T22:40:59.970Z,102457.75
2022-08-07T22:43:37.285Z,102464.97
2022-08-07T22:47:04.430Z,102464.97
2022-08-07T22:49:54.541Z,102471.19
2022-08-07T22:52:39.616Z,102471.19
2022-08-07T22:55:47.570Z,102473.97
2022-08-07T22:58:48.822Z,102473.97
2022-08-07T23:01:49.414Z,102473.97
2022-08-07T23:04:56.963Z,102478.50
2022-08-07T23:07:44.992Z,102477.63
2022-08-07T23:10:37.561Z,102479.41
2022-08-07T23:13:48.971Z,102480.22
2022-08-07T23:16:46.470Z,102479.34
2022-08-07T23:20:07.603Z,102487.44
2022-08-07T23:22:52.183Z,102481.09
2022-08-07T23:25:33.632Z,102480.31
2022-08-07T23:28:29.180Z,102476.72
2022-08-07T23:31:43.047Z,102478.50
2022-08-07T23:34:22.145Z,102477.63
2022-08-07T23:37:29.296Z,102477.63
2022-08-07T23:40:13.711Z,102477.63
2022-08-07T23:43:17.076Z,102481.22
2022-08-07T23:46:02.830Z,102479.41
2022-08-07T23:48:51.585Z,102475.84
2022-08-07T23:52:59.666Z,102477.69
2022-08-07T23:54:44.365Z,102481.22
2022-08-07T23:57:22.364Z,102478.53
